Time;durP1;ratioP1;P1;durP2;ratioP2;P2;SDS_P1;SDS_P2;PMS_P1;PMS_P2;Temp;Humidity;BMP_temperature;BMP_pressure;BME280_temperature;BME280_humidity;BME280_pressure;Samples;Min_cycle;Max_cycle;Signal;HPM_P1;HPM_P2
2022/08/09 00:01:38;;;;;;;5.37;2.30;;;;;;;11.25;96.12;98432.19;7614907;23;20216;-74
2022/08/09 00:04:56;;;;;;;2.80;2.60;;;;;;;11.22;96.25;98428.91;7593234;23;20603;-74
2022/08/09 00:08:18;;;;;;;2.70;2.50;;;;;;;11.20;96.42;98428.19;7595200;23;20679;-74
2022/08/09 00:11:34;;;;;;;3.27;2.60;;;;;;;11.18;96.26;98427.47;7616590;23;20225;-74
2022/08/09 00:14:56;;;;;;;2.43;2.27;;;;;;;11.16;96.29;98426.72;7615259;23;20247;-72
2022/08/09 00:18:07;;;;;;;2.57;2.37;;;;;;;11.13;95.99;98429.56;7616484;23;20216;-72
2022/08/09 00:21:13;;;;;;;3.23;2.93;;;;;;;11.09;96.34;98421.84;7567783;23;20183;-72
2022/08/09 00:24:17;;;;;;;3.67;2.70;;;;;;;11.08;96.03;98424.59;7590493;23;20210;-73
2022/08/09 00:27:20;;;;;;;2.60;2.40;;;;;;;11.07;96.18;98423.78;7616325;23;20183;-73
2022/08/09 00:30:23;;;;;;;2.43;2.23;;;;;;;11.01;96.07;98426.84;7590016;23;20525;-73
2022/08/09 00:33:27;;;;;;;3.37;2.80;;;;;;;10.98;96.58;98432.31;7591252;23;20219;-72
2022/08/09 00:36:49;;;;;;;2.83;2.63;;;;;;;10.95;96.02;98426.44;7615325;23;20231;-72
2022/08/09 00:39:52;;;;;;;5.70;2.40;;;;;;;10.97;96.13;98438.59;7616713;23;20215;-72
2022/08/09 00:43:15;;;;;;;2.27;2.17;;;;;;;10.97;96.65;98432.47;7595203;23;20664;-72
2022/08/09 00:46:37;;;;;;;2.73;2.53;;;;;;;10.95;96.06;98437.84;7615184;23;20357;-72
2022/08/09 00:50:00;;;;;;;3.37;2.47;;;;;;;10.90;96.13;98429.38;7616149;23;20290;-72
2022/08/09 00:53:02;;;;;;;4.40;2.17;;;;;;;10.83;96.70;98432.56;7615892;23;20676;-72
2022/08/09 00:56:14;;;;;;;3.07;2.23;;;;;;;10.80;96.00;98430.13;7615054;23;20215;-72
2022/08/09 00:59:17;;;;;;;2.37;2.17;;;;;;;10.75;96.14;98434.88;7590358;23;20207;-72
2022/08/09 01:02:46;;;;;;;2.83;2.63;;;;;;;10.75;96.21;98421.69;7613710;23;20668;-71
2022/08/09 01:06:03;;;;;;;2.50;2.30;;;;;;;10.75;96.08;98426.97;7613966;23;20216;-71
2022/08/09 01:09:29;;;;;;;2.87;2.67;;;;;;;10.71;96.38;98432.44;7614928;23;20210;-71
2022/08/09 01:12:42;;;;;;;2.47;2.27;;;;;;;10.70;96.18;98429.91;7589751;23;20231;-71
2022/08/09 01:15:45;;;;;;;2.87;2.67;;;;;;;10.68;95.96;98431.84;7589622;23;20214;-71
2022/08/09 01:18:57;;;;;;;2.53;2.33;;;;;;;10.64;96.47;98433.00;7590623;23;20211;-71
2022/08/09 01:22:33;;;;;;;3.07;2.67;;;;;;;10.61;96.04;98425.28;7589673;23;20215;-71
2022/08/09 01:25:47;;;;;;;3.60;2.40;;;;;;;10.58;96.17;98418.41;7567869;23;20210;-71
2022/08/09 01:28:55;;;;;;;2.80;2.60;;;;;;;10.56;96.45;98417.69;7616092;23;20215;-71
2022/08/09 01:32:02;;;;;;;3.27;2.97;;;;;;;10.56;96.33;98415.03;7615497;23;20210;-71
2022/08/09 01:35:30;;;;;;;2.83;2.63;;;;;;;10.57;96.66;98413.25;7615440;23;20214;-71
2022/08/09 01:38:45;;;;;;;2.50;2.30;;;;;;;10.62;96.48;98414.59;7615401;23;20215;-71
2022/08/09 01:41:50;;;;;;;5.00;2.80;;;;;;;10.65;96.70;98413.56;7615527;23;20234;-72
2022/08/09 01:45:02;;;;;;;3.33;3.07;;;;;;;10.67;96.51;98411.66;7616155;23;20214;-71
2022/08/09 01:48:08;;;;;;;3.07;2.87;;;;;;;10.68;96.75;98414.19;7614947;23;20207;-71
2022/08/09 01:51:19;;;;;;;3.80;3.50;;;;;;;10.69;96.94;98418.50;7615218;23;20179;-70
2022/08/09 01:54:29;;;;;;;3.20;2.90;;;;;;;10.68;96.68;98414.19;7577775;23;20211;-71
2022/08/09 01:57:40;;;;;;;4.93;2.90;;;;;;;10.70;97.09;98417.56;7579518;23;20293;-71
2022/08/09 02:00:46;;;;;;;3.90;3.50;;;;;;;10.71;97.19;98416.63;7580052;23;20232;-71
2022/08/09 02:03:54;;;;;;;4.13;3.30;;;;;;;10.74;97.10;98412.94;7578365;23;20244;-71
2022/08/09 02:07:08;;;;;;;3.53;3.23;;;;;;;10.75;97.49;98414.63;7579503;23;20218;-71
2022/08/09 02:10:36;;;;;;;3.53;3.23;;;;;;;10.75;97.38;98406.69;7578509;23;20711;-71
2022/08/09 02:13:39;;;;;;;4.37;3.53;;;;;;;10.76;97.47;98416.31;7579231;23;20211;-71
2022/08/09 02:16:44;;;;;;;6.43;3.80;;;;;;;10.76;97.61;98415.47;7579446;23;20240;-70
2022/08/09 02:20:07;;;;;;;3.73;3.43;;;;;;;10.77;97.93;98417.16;7578074;23;20246;-71
2022/08/09 02:23:12;;;;;;;5.33;3.47;;;;;;;10.75;97.81;98411.13;7579765;23;20769;-71
2022/08/09 02:26:19;;;;;;;3.60;3.30;;;;;;;10.75;97.92;98411.13;7578257;23;20702;-71
2022/08/09 02:29:31;;;;;;;3.43;3.13;;;;;;;10.74;98.38;98402.38;7579436;23;20210;-71
2022/08/09 02:32:39;;;;;;;3.77;3.47;;;;;;;10.75;98.35;98411.97;7580343;23;20289;-71
2022/08/09 02:35:44;;;;;;;6.93;3.80;;;;;;;10.74;98.31;98412.94;7579961;23;20214;-71
2022/08/09 02:39:10;;;;;;;4.33;3.90;;;;;;;10.74;98.51;98415.56;7582890;23;20578;-71
2022/08/09 02:42:30;;;;;;;5.83;3.53;;;;;;;10.75;98.57;98414.63;7579235;23;20658;-71
2022/08/09 02:45:38;;;;;;;4.07;3.67;;;;;;;10.72;99.02;98410.38;7577041;23;20211;-71
2022/08/09 02:48:44;;;;;;;3.80;3.50;;;;;;;10.72;98.86;98407.75;7579485;23;20266;-71
2022/08/09 02:51:53;;;;;;;4.70;3.20;;;;;;;10.71;98.75;98407.84;7578911;23;20707;-71
2022/08/09 02:54:57;;;;;;;5.13;3.90;;;;;;;10.68;99.11;98398.34;7600724;23;20584;-71
2022/08/09 02:58:05;;;;;;;4.90;3.93;;;;;;;10.66;99.36;98394.13;7613951;23;20529;-71
2022/08/09 03:01:29;;;;;;;6.27;4.20;;;;;;;10.65;99.73;98403.00;7614842;23;20554;-71
2022/08/09 03:05:06;;;;;;;4.30;3.73;;;;;;;10.66;100.00;98399.41;7538461;23;20218;-72
2022/08/09 03:08:19;;;;;;;5.37;4.10;;;;;;;10.65;99.55;98398.56;7539207;23;20596;-74
2022/08/09 03:11:26;;;;;;;3.60;3.20;;;;;;;10.65;100.00;98397.72;7514870;23;20678;-73
2022/08/09 03:14:49;;;;;;;4.73;3.90;;;;;;;10.63;99.58;98399.63;7538900;23;20739;-73
2022/08/09 03:17:52;;;;;;;5.00;4.00;;;;;;;10.62;99.88;98396.13;7515597;23;20678;-73
2022/08/09 03:21:01;;;;;;;5.43;4.87;;;;;;;10.59;100.00;98403.41;7514460;23;20711;-73
2022/08/09 03:24:04;;;;;;;5.70;4.50;;;;;;;10.58;100.00;98396.47;7513870;23;20217;-72
2022/08/09 03:27:08;;;;;;;4.70;4.30;;;;;;;10.56;100.00;98398.38;7490533;23;20185;-72
2022/08/09 03:30:13;;;;;;;3.83;3.53;;;;;;;10.55;100.00;98392.25;7538244;23;20749;-72
2022/08/09 03:33:36;;;;;;;4.17;3.77;;;;;;;10.54;100.00;98397.63;7543798;23;20210;-72
2022/08/09 03:36:58;;;;;;;5.23;3.83;;;;;;;10.52;100.00;98400.34;7614851;23;20232;-72
2022/08/09 03:40:20;;;;;;;4.30;3.93;;;;;;;10.52;100.00;98405.63;7614569;23;20675;-72
2022/08/09 03:43:26;;;;;;;6.00;3.60;;;;;;;10.50;100.00;98398.75;7589140;23;20668;-72
2022/08/09 03:46:33;;;;;;;4.70;4.30;;;;;;;10.47;100.00;98401.63;7613475;23;20593;-72
2022/08/09 03:49:36;;;;;;;4.60;3.87;;;;;;;10.47;100.00;98406.91;7589936;23;20224;-72
2022/08/09 03:52:41;;;;;;;4.50;4.07;;;;;;;10.47;100.00;98393.72;7614658;23;20216;-72
2022/08/09 03:55:48;;;;;;;5.77;4.77;;;;;;;10.46;100.00;98395.50;7614641;23;20221;-71
2022/08/09 03:58:50;;;;;;;5.93;4.40;;;;;;;10.47;100.00;98402.47;7589859;23;20733;-71
2022/08/09 04:01:57;;;;;;;5.17;4.23;;;;;;;10.47;100.00;98397.19;7591570;23;20214;-71
2022/08/09 04:05:02;;;;;;;8.73;4.40;;;;;;;10.49;100.00;98392.63;7617130;23;20241;-71
2022/08/09 04:08:07;;;;;;;6.30;4.43;;;;;;;10.51;100.00;98395.19;7617695;23;20703;-71
2022/08/09 04:11:10;;;;;;;5.40;4.67;;;;;;;10.51;100.00;98389.91;7590583;23;20348;-71
2022/08/09 04:14:19;;;;;;;4.90;4.50;;;;;;;10.54;100.00;98401.09;7615692;23;20227;-71
2022/08/09 04:17:42;;;;;;;5.43;4.80;;;;;;;10.58;100.00;98399.91;7617654;23;20722;-71
2022/08/09 04:20:48;;;;;;;4.77;4.37;;;;;;;10.60;100.00;98405.09;7616043;23;20209;-71
2022/08/09 04:23:50;;;;;;;5.37;4.87;;;;;;;10.62;100.00;98401.41;7615614;23;20213;-71
2022/08/09 04:26:58;;;;;;;5.60;5.10;;;;;;;10.63;100.00;98399.63;7617056;23;20220;-71
2022/08/09 04:30:01;;;;;;;5.93;5.03;;;;;;;10.64;100.00;98402.16;7589794;23;20282;-71
2022/08/09 04:33:03;;;;;;;6.33;5.40;;;;;;;10.67;100.00;98401.09;7600356;23;20211;-72
2022/08/09 04:36:08;;;;;;;6.83;5.10;;;;;;;10.71;100.00;98399.94;7620602;23;20230;-72
2022/08/09 04:39:12;;;;;;;7.53;5.17;;;;;;;10.73;100.00;98408.59;7619615;23;20211;-72
2022/08/09 04:42:14;;;;;;;5.77;4.70;;;;;;;10.78;100.00;98400.38;7619160;23;20233;-71
2022/08/09 04:45:16;;;;;;;5.47;4.77;;;;;;;10.80;100.00;98406.34;7594604;23;20184;-71
2022/08/09 04:48:21;;;;;;;5.23;4.83;;;;;;;10.82;100.00;98407.09;7591794;23;20288;-71
2022/08/09 04:51:34;;;;;;;5.23;4.83;;;;;;;10.84;100.00;98408.69;7591340;23;20674;-71
2022/08/09 04:54:37;;;;;;;6.43;5.07;;;;;;;10.87;100.00;98412.94;7620584;23;20231;-72
2022/08/09 04:57:39;;;;;;;5.27;4.73;;;;;;;10.92;100.00;98416.06;7622108;23;20296;-71
2022/08/09 05:01:02;;;;;;;5.43;4.93;;;;;;;10.98;100.00;98415.66;7621276;23;20226;-72
2022/08/09 05:04:04;;;;;;;5.13;4.30;;;;;;;11.02;100.00;98414.47;7596798;23;20213;-72
2022/08/09 05:07:06;;;;;;;5.03;4.63;;;;;;;11.07;100.00;98413.22;7597150;23;20211;-72
2022/08/09 05:10:19;;;;;;;5.30;4.50;;;;;;;11.12;100.00;98422.59;7596291;23;20584;-71
2022/08/09 05:13:24;;;;;;;5.33;4.83;;;;;;;11.19;100.00;98429.13;7615975;23;20219;-72
2022/08/09 05:16:27;;;;;;;4.60;4.30;;;;;;;11.24;100.00;98424.38;7588862;23;20212;-73
2022/08/09 05:19:32;;;;;;;5.13;4.70;;;;;;;11.28;100.00;98426.69;7615266;23;20223;-72
2022/08/09 05:22:49;;;;;;;4.63;4.20;;;;;;;11.32;100.00;98428.16;7616351;23;20593;-72
2022/08/09 05:26:11;;;;;;;5.63;4.73;;;;;;;11.42;100.00;98436.28;7616613;23;20216;-72
2022/08/09 05:29:27;;;;;;;5.67;4.50;;;;;;;11.50;100.00;98430.44;7615561;23;20226;-71
2022/08/09 05:32:36;;;;;;;5.37;4.83;;;;;;;11.56;100.00;98424.72;7618354;23;20219;-71
2022/08/09 05:35:42;;;;;;;6.97;4.83;;;;;;;11.65;100.00;98434.63;7566199;23;20265;-71
2022/08/09 05:38:50;;;;;;;5.80;4.60;;;;;;;11.71;100.00;98429.72;7615510;23;20293;-72
2022/08/09 05:41:52;;;;;;;5.57;5.07;;;;;;;11.79;100.00;98445.91;7614283;23;20695;-72
2022/08/09 05:44:55;;;;;;;5.00;4.50;;;;;;;11.85;100.00;98434.06;7588014;23;20413;-72
2022/08/09 05:47:57;;;;;;;5.33;4.83;;;;;;;11.94;100.00;98441.31;7589257;23;20702;-72
2022/08/09 05:51:02;;;;;;;7.10;4.67;;;;;;;12.02;100.00;98432.78;7614028;23;20203;-71
2022/08/09 05:54:24;;;;;;;5.20;4.70;;;;;;;12.07;100.00;98430.66;7569866;23;20211;-72
2022/08/09 05:57:26;;;;;;;6.20;4.70;;;;;;;12.12;100.00;98431.16;7615996;23;20239;-72
2022/08/09 06:00:48;;;;;;;6.57;4.73;;;;;;;12.20;100.00;98436.72;7615248;23;20216;-72
2022/08/09 06:03:51;;;;;;;5.60;4.60;;;;;;;12.28;100.00;98442.28;7614059;23;20688;-73
2022/08/09 06:06:59;;;;;;;5.67;4.70;;;;;;;12.36;100.00;98439.91;7588985;23;20219;-72
2022/08/09 06:10:01;;;;;;;5.70;4.50;;;;;;;12.43;100.00;98435.84;7589586;23;20206;-73
2022/08/09 06:13:09;;;;;;;6.43;4.80;;;;;;;12.56;100.00;98435.75;7589007;23;20222;-73
2022/08/09 06:16:19;;;;;;;4.53;4.13;;;;;;;12.63;100.00;98434.31;7614867;23;20232;-73
2022/08/09 06:19:21;;;;;;;5.23;4.40;;;;;;;12.74;100.00;98433.50;7588054;23;20231;-72
2022/08/09 06:22:23;;;;;;;4.47;4.07;;;;;;;12.79;100.00;98432.16;7588697;23;20678;-73
2022/08/09 06:25:30;;;;;;;4.37;3.97;;;;;;;12.94;99.59;98432.81;7589669;23;20213;-73
2022/08/09 06:28:35;;;;;;;4.90;3.90;;;;;;;13.11;97.76;98434.97;7566039;23;20523;-72
2022/08/09 06:31:37;;;;;;;4.57;3.70;;;;;;;13.30;96.08;98424.63;7613501;23;20212;-73
2022/08/09 06:34:59;;;;;;;6.03;3.17;;;;;;;13.42;95.29;98433.41;7614536;23;20212;-72
2022/08/09 06:38:07;;;;;;;5.23;2.90;;;;;;;13.54;93.55;98428.94;7613722;23;20220;-71
2022/08/09 06:41:09;;;;;;;3.17;2.67;;;;;;;13.62;92.77;98431.81;7589220;23;20218;-73
2022/08/09 06:44:21;;;;;;;3.07;2.80;;;;;;;13.81;90.94;98442.63;7613284;23;20490;-73
2022/08/09 06:47:24;;;;;;;3.10;2.67;;;;;;;14.02;89.10;98437.38;7615577;23;20661;-71
2022/08/09 06:50:40;;;;;;;4.57;2.33;;;;;;;14.21;87.99;98431.38;7613632;23;20510;-71
2022/08/09 06:53:42;;;;;;;2.87;2.47;;;;;;;14.44;84.01;98429.50;7614266;23;20270;-71
2022/08/09 06:56:44;;;;;;;3.93;2.57;;;;;;;14.81;83.80;98433.38;7588337;23;20672;-70
2022/08/09 06:59:48;;;;;;;4.20;2.47;;;;;;;15.05;84.10;98441.91;7588164;23;20299;-71
2022/08/09 07:03:10;;;;;;;5.60;2.60;;;;;;;15.33;83.32;98432.38;7614735;23;20272;-71
2022/08/09 07:06:12;;;;;;;3.40;2.17;;;;;;;15.64;79.11;98435.88;7614721;23;20267;-70
2022/08/09 07:09:15;;;;;;;2.00;1.83;;;;;;;16.12;77.33;98445.75;7614559;23;20186;-70
2022/08/09 07:12:37;;;;;;;2.60;2.17;;;;;;;16.62;75.90;98442.97;7614460;23;20629;-71
2022/08/09 07:15:43;;;;;;;3.13;1.87;;;;;;;16.85;76.05;98439.00;7615074;23;20238;-71
2022/08/09 07:19:05;;;;;;;1.90;1.67;;;;;;;17.14;74.41;98444.25;7614348;23;20666;-71
2022/08/09 07:22:08;;;;;;;2.07;1.83;;;;;;;17.39;72.29;98445.41;7613559;23;20223;-71
2022/08/09 07:25:12;;;;;;;2.90;1.80;;;;;;;17.63;71.66;98448.41;7587650;23;20235;-71
2022/08/09 07:28:16;;;;;;;2.80;1.97;;;;;;;17.80;70.28;98447.59;7614579;23;20703;-71
2022/08/09 07:31:29;;;;;;;2.93;1.80;;;;;;;18.16;69.54;98445.84;7589608;23;20212;-71
2022/08/09 07:34:39;;;;;;;4.27;1.80;;;;;;;18.38;69.10;98442.69;7596706;23;20213;-71
2022/08/09 07:37:44;;;;;;;3.10;1.63;;;;;;;18.72;65.17;98450.03;7591237;23;20212;-71
2022/08/09 07:40:48;;;;;;;2.07;1.50;;;;;;;18.89;65.84;98446.47;7617172;23;20733;-72
2022/08/09 07:44:12;;;;;;;2.50;1.67;;;;;;;19.00;63.75;98435.50;7615459;23;20213;-71
2022/08/09 07:47:14;;;;;;;4.93;1.83;;;;;;;19.31;61.83;98446.56;7618184;23;20429;-71
2022/08/09 07:50:21;;;;;;;2.47;1.70;;;;;;;19.86;62.14;98438.94;7615964;23;20236;-71
2022/08/09 07:53:38;;;;;;;2.60;1.63;;;;;;;19.90;63.22;98447.50;7617230;23;20221;-72
2022/08/09 07:57:00;;;;;;;2.67;1.53;;;;;;;20.13;61.18;98437.00;7617234;23;20539;-71
2022/08/09 08:00:08;;;;;;;2.60;1.80;;;;;;;20.21;61.47;98442.38;7589791;23;20665;-72
2022/08/09 08:03:14;;;;;;;2.57;1.93;;;;;;;20.57;60.05;98440.25;7568092;23;20193;-71
2022/08/09 08:06:18;;;;;;;2.53;1.80;;;;;;;20.81;58.50;98448.31;7615918;23;20177;-70
2022/08/09 08:09:21;;;;;;;5.03;1.67;;;;;;;20.87;57.83;98439.56;7617957;23;20794;-70
2022/08/09 08:12:44;;;;;;;4.17;1.60;;;;;;;21.06;58.80;98430.34;7615104;23;20234;-70
2022/08/09 08:15:47;;;;;;;2.97;1.80;;;;;;;21.42;57.85;98433.44;7615952;23;21030;-71
2022/08/09 08:18:50;;;;;;;4.77;1.70;;;;;;;21.79;55.81;98424.72;7617597;23;20834;-71
2022/08/09 08:21:53;;;;;;;4.40;1.70;;;;;;;21.99;55.40;98436.72;7590532;23;20217;-70
2022/08/09 08:24:56;;;;;;;4.13;1.53;;;;;;;22.17;54.69;98431.06;7617110;23;20267;-70
2022/08/09 08:27:58;;;;;;;3.73;1.63;;;;;;;21.94;53.67;98427.50;7615848;23;20568;-70
2022/08/09 08:31:01;;;;;;;5.77;1.70;;;;;;;21.70;52.45;98434.66;7617448;23;20263;-71
2022/08/09 08:34:16;;;;;;;2.40;1.77;;;;;;;22.11;52.73;98421.03;7614875;23;20295;-70
2022/08/09 08:37:26;;;;;;;3.50;1.87;;;;;;;22.45;51.55;98421.47;7616687;23;20212;-70
2022/08/09 08:40:51;;;;;;;3.00;1.93;;;;;;;22.63;49.86;98409.56;7594046;23;20242;-70
2022/08/09 08:43:53;;;;;;;3.50;1.80;;;;;;;22.76;52.32;98412.47;7615864;23;20271;-69
2022/08/09 08:47:02;;;;;;;2.60;1.80;;;;;;;22.98;50.52;98410.75;7589047;23;20526;-70
2022/08/09 08:50:15;;;;;;;2.60;1.97;;;;;;;23.50;49.46;98419.63;7588220;23;20668;-69
2022/08/09 08:53:19;;;;;;;5.27;1.90;;;;;;;23.49;47.75;98417.09;7615988;23;20212;-69
2022/08/09 08:56:22;;;;;;;2.80;1.80;;;;;;;23.51;47.23;98413.22;7615270;23;20211;-69
2022/08/09 08:59:29;;;;;;;2.77;1.27;;;;;;;23.87;48.22;98425.91;7615247;23;20267;-70
2022/08/09 09:02:50;;;;;;;2.67;1.30;;;;;;;24.32;47.05;98419.38;7616027;23;20216;-70
2022/08/09 09:05:55;;;;;;;2.20;1.40;;;;;;;24.57;46.47;98422.50;7615099;23;20208;-70
2022/08/09 09:09:06;;;;;;;2.90;1.60;;;;;;;24.72;46.06;98423.28;7591071;23;20581;-70
2022/08/09 09:12:30;;;;;;;6.17;2.20;;;;;;;24.55;44.68;98430.00;7589737;23;20213;-70
2022/08/09 09:15:37;;;;;;;3.53;1.80;;;;;;;24.82;46.06;98431.06;7590592;23;20216;-69
2022/08/09 09:18:41;;;;;;;2.93;1.57;;;;;;;25.24;44.01;98425.59;7613185;23;20225;-70
2022/08/09 09:22:00;;;;;;;4.13;1.70;;;;;;;25.28;43.77;98426.00;7616424;23;20215;-69
2022/08/09 09:25:05;;;;;;;3.45;1.30;;;;;;;25.35;44.63;98424.19;7615242;23;20212;-70
2022/08/09 09:28:32;;;;;;;2.88;1.77;;;;;;;25.41;43.52;98430.66;7613533;23;20299;-68
2022/08/09 09:31:54;;;;;;;4.38;1.48;;;;;;;25.60;43.39;98424.56;7616846;23;20236;-69
2022/08/09 09:35:16;;;;;;;2.57;1.53;;;;;;;25.53;43.51;98413.69;7614846;23;20213;-70
2022/08/09 09:38:22;;;;;;;3.97;1.50;;;;;;;25.78;44.73;98421.31;7589096;23;20545;-70
2022/08/09 09:41:37;;;;;;;4.30;1.67;;;;;;;25.85;45.43;98420.31;7615665;23;20243;-71
2022/08/09 09:45:02;;;;;;;5.75;1.45;;;;;;;25.65;46.08;98422.13;7614086;23;20703;-71
2022/08/09 09:48:04;;;;;;;3.88;1.60;;;;;;;25.86;43.05;98421.13;7589270;23;20204;-71
2022/08/09 09:51:06;;;;;;;2.33;1.50;;;;;;;26.09;40.42;98416.22;7613496;23;20184;-71
2022/08/09 09:54:21;;;;;;;2.40;1.60;;;;;;;25.99;41.38;98415.78;7615733;23;20254;-71
2022/08/09 09:57:24;;;;;;;5.00;1.52;;;;;;;26.46;42.18;98418.41;7615332;23;20800;-69
2022/08/09 10:00:47;;;;;;;4.72;1.42;;;;;;;27.12;40.19;98412.22;7588485;23;20295;-70
2022/08/09 10:03:56;;;;;;;2.88;1.33;;;;;;;27.40;38.76;98406.53;7615544;23;20215;-71
2022/08/09 10:07:00;;;;;;;4.35;1.33;;;;;;;27.69;38.66;98400.63;7591025;23;20213;-71
2022/08/09 10:10:10;;;;;;;3.75;1.60;;;;;;;28.03;37.27;98407.56;7614921;23;20673;-70
2022/08/09 10:13:12;;;;;;;2.53;1.83;;;;;;;28.15;39.21;98403.09;7614151;23;20892;-70
2022/08/09 10:16:37;;;;;;;3.80;1.75;;;;;;;27.79;38.92;98401.00;7616515;23;20220;-70
2022/08/09 10:20:02;;;;;;;3.33;1.60;;;;;;;27.32;37.57;98395.91;7614883;23;20220;-71
2022/08/09 10:23:18;;;;;;;4.32;1.60;;;;;;;27.34;40.12;98399.25;7615184;23;20648;-71
2022/08/09 10:26:24;;;;;;;2.75;1.65;;;;;;;27.15;40.84;98396.34;7589027;23;20208;-71
2022/08/09 10:29:28;;;;;;;4.63;1.73;;;;;;;27.90;36.88;98391.34;7615996;23;20208;-71
2022/08/09 10:32:52;;;;;;;2.40;1.48;;;;;;;27.65;38.63;98393.94;7589408;23;20216;-70
2022/08/09 10:35:56;;;;;;;2.83;1.65;;;;;;;27.80;38.13;98390.97;7612958;23;20223;-70
2022/08/09 10:39:02;;;;;;;2.53;1.50;;;;;;;27.84;39.23;98387.63;7587343;23;20208;-71
2022/08/09 10:42:17;;;;;;;3.55;1.80;;;;;;;27.22;39.09;98390.94;7591095;23;20206;-70
2022/08/09 10:45:20;;;;;;;2.97;1.80;;;;;;;27.31;40.13;98391.53;7614369;23;20176;-70
2022/08/09 10:48:36;;;;;;;2.33;1.80;;;;;;;27.90;39.07;98375.06;7614405;23;20208;-70
2022/08/09 10:51:53;;;;;;;1.88;1.63;;;;;;;28.28;39.48;98384.03;7614949;23;20283;-70
2022/08/09 10:55:25;;;;;;;4.38;1.50;;;;;;;27.09;39.26;98378.22;7589649;23;20293;-71
2022/08/09 10:58:32;;;;;;;3.70;1.80;;;;;;;26.89;40.76;98376.56;7588135;23;20223;-71
2022/08/09 11:01:54;;;;;;;1.95;1.25;;;;;;;28.03;40.07;98376.88;7589679;23;20545;-70
2022/08/09 11:05:18;;;;;;;2.38;2.13;;;;;;;27.58;38.48;98379.56;7615013;23;20277;-72
2022/08/09 11:08:42;;;;;;;3.05;1.60;;;;;;;27.63;37.53;98368.09;7589553;23;20518;-70
2022/08/09 11:12:14;;;;;;;1.95;1.10;;;;;;;28.58;38.45;98367.94;7615996;23;20303;-70
2022/08/09 11:15:18;;;;;;;2.72;1.80;;;;;;;29.13;35.84;98364.56;7608380;23;20321;-70
2022/08/09 11:18:53;;;;;;;1.60;1.50;;;;;;;29.12;38.16;98365.63;7590919;23;20220;-71
2022/08/09 11:21:58;;;;;;;2.55;1.67;;;;;;;29.06;37.34;98367.34;7504480;23;20210;-71
2022/08/09 11:25:35;;;;;;;2.70;1.85;;;;;;;28.18;36.39;98366.56;7482424;23;20215;-72
2022/08/09 11:28:48;;;;;;;4.95;1.90;;;;;;;27.55;36.09;98366.47;7504965;23;20211;-71
2022/08/09 11:31:57;;;;;;;3.20;1.77;;;;;;;27.34;36.07;98369.44;7505128;23;20602;-70
2022/08/09 11:35:04;;;;;;;3.33;1.65;;;;;;;28.04;36.21;98354.13;7505157;23;20210;-70
2022/08/09 11:38:25;;;;;;;2.22;1.67;;;;;;;28.25;33.53;98361.91;7504635;23;20229;-71
2022/08/09 11:41:34;;;;;;;2.50;1.60;;;;;;;27.72;34.41;98367.63;7504512;23;20558;-71
2022/08/09 11:44:45;;;;;;;3.22;1.73;;;;;;;27.22;35.07;98357.56;7505080;23;20215;-71
2022/08/09 11:47:52;;;;;;;2.00;1.63;;;;;;;27.61;34.62;98352.03;7505135;23;20219;-70
2022/08/09 11:50:58;;;;;;;2.05;1.55;;;;;;;28.65;37.38;98346.97;7479777;23;20297;-71
2022/08/09 11:54:20;;;;;;;1.65;1.40;;;;;;;29.01;34.08;98350.88;7503728;23;20222;-72
2022/08/09 11:57:40;;;;;;;2.55;1.40;;;;;;;29.39;31.55;98347.97;7517880;23;20208;-71
2022/08/09 12:01:07;;;;;;;3.50;1.77;;;;;;;27.94;30.96;98354.59;7616130;23;20734;-71
2022/08/09 12:04:29;;;;;;;2.47;1.45;;;;;;;26.88;33.00;98356.75;7616582;23;20291;-70
2022/08/09 12:07:39;;;;;;;1.42;1.33;;;;;;;28.29;32.58;98344.16;7616059;23;20222;-70
2022/08/09 12:10:45;;;;;;;2.08;1.40;;;;;;;29.59;29.62;98331.41;7616234;23;20215;-70
2022/08/09 12:13:55;;;;;;;1.50;1.40;;;;;;;29.80;31.40;98330.09;7617821;23;20217;-70
2022/08/09 12:17:13;;;;;;;2.50;1.08;;;;;;;28.82;30.79;98347.31;7592991;23;20217;-70
2022/08/09 12:20:40;;;;;;;2.20;1.30;;;;;;;29.25;30.61;98336.38;7615213;23;20212;-70
2022/08/09 12:23:45;;;;;;;2.17;1.40;;;;;;;30.26;30.82;98332.16;7590256;23;20665;-70
2022/08/09 12:27:19;;;;;;;3.08;1.45;;;;;;;30.39;25.79;98321.91;7591131;23;20570;-71
2022/08/09 12:30:42;;;;;;;3.92;1.40;;;;;;;30.87;27.46;98322.78;7590385;23;20563;-70
2022/08/09 12:33:44;;;;;;;2.33;1.30;;;;;;;30.36;29.41;98324.25;7615593;23;20219;-70
2022/08/09 12:37:02;;;;;;;1.23;1.13;;;;;;;30.23;29.56;98319.03;7616707;23;20276;-69
2022/08/09 12:40:27;;;;;;;4.55;1.40;;;;;;;30.47;28.05;98318.00;7616770;23;20216;-70
2022/08/09 12:43:31;;;;;;;1.35;1.10;;;;;;;29.73;27.74;98316.59;7621049;23;20209;-70
2022/08/09 12:46:53;;;;;;;1.15;1.00;;;;;;;29.57;28.03;98318.03;7615139;23;20231;-71
2022/08/09 12:53:31;;;;;;;1.75;1.30;;;;;;;28.88;28.62;98323.81;7615467;23;20278;-70
2022/08/09 12:56:46;;;;;;;4.55;1.35;;;;;;;29.29;28.75;98315.00;7615560;23;20223;-70
2022/08/09 13:00:20;;;;;;;1.50;1.10;;;;;;;29.06;26.92;98312.13;7589397;23;20213;-70
2022/08/09 13:03:35;;;;;;;1.42;0.95;;;;;;;29.59;27.69;98315.94;7615549;23;20653;-70
2022/08/09 13:06:54;;;;;;;7.72;1.33;;;;;;;30.03;26.10;98313.91;7615096;23;20227;-70
2022/08/09 13:10:01;;;;;;;1.08;1.05;;;;;;;30.45;25.81;98322.84;7616113;23;20238;-70
2022/08/09 13:13:03;;;;;;;2.95;1.30;;;;;;;30.18;25.91;98305.28;7616557;23;20695;-69
2022/08/09 13:16:14;;;;;;;2.30;1.30;;;;;;;30.51;25.32;98312.94;7615388;23;20267;-70
2022/08/09 13:19:29;;;;;;;1.75;1.20;;;;;;;30.62;25.10;98295.78;7589901;23;20222;-70
2022/08/09 13:22:51;;;;;;;2.15;1.30;;;;;;;30.03;26.83;98294.84;7589932;23;20212;-71
2022/08/09 13:26:40;;;;;;;2.20;1.33;;;;;;;29.93;26.53;98303.53;7590338;23;20265;-70
2022/08/09 13:29:51;;;;;;;1.40;1.27;;;;;;;30.43;27.41;98298.59;7588734;23;20212;-70
2022/08/09 13:33:22;;;;;;;1.77;1.08;;;;;;;31.41;26.97;98288.84;7613361;23;20215;-70
2022/08/09 13:36:25;;;;;;;3.20;1.30;;;;;;;31.74;25.21;98297.19;7590143;23;20703;-70
2022/08/09 13:39:44;;;;;;;1.55;1.08;;;;;;;32.16;23.20;98303.13;7615363;23;20285;-70
2022/08/09 13:43:06;;;;;;;4.00;1.50;;;;;;;31.14;25.30;98307.66;7622581;23;20209;-69
2022/08/09 13:46:10;;;;;;;3.10;1.30;;;;;;;31.62;24.11;98301.81;7615051;23;20212;-70
2022/08/09 13:49:34;;;;;;;4.28;1.25;;;;;;;31.55;25.57;98301.94;7615394;23;20579;-71
2022/08/09 13:52:56;;;;;;;1.83;1.13;;;;;;;33.15;23.73;98292.41;7614575;23;20295;-71
2022/08/09 13:55:58;;;;;;;2.45;1.10;;;;;;;34.11;22.48;98305.66;7614936;23;20871;-71
2022/08/09 13:59:00;;;;;;;2.35;1.42;;;;;;;33.49;22.63;98320.53;7588547;23;20234;-70
2022/08/09 14:02:03;;;;;;;2.50;1.20;;;;;;;34.07;21.45;98319.84;7588910;23;20219;-71
2022/08/09 14:05:05;;;;;;;1.88;1.10;;;;;;;33.81;21.43;98317.09;7615654;23;20291;-70
2022/08/09 14:08:08;;;;;;;1.92;1.20;;;;;;;36.35;19.17;98309.41;7615382;23;20595;-71
2022/08/09 14:11:11;;;;;;;1.75;1.10;;;;;;;37.70;17.37;98311.41;7615614;23;20217;-71
2022/08/09 14:14:17;;;;;;;1.60;0.85;;;;;;;37.36;17.30;98315.91;7614529;23;20287;-70
2022/08/09 14:17:28;;;;;;;3.92;1.23;;;;;;;39.13;16.60;98300.97;7587603;23;20676;-70
2022/08/09 14:20:51;;;;;;;3.67;1.05;;;;;;;39.04;15.90;98309.03;7615797;23;20227;-71
2022/08/09 14:23:53;;;;;;;1.13;1.02;;;;;;;38.18;16.88;98314.44;7614792;23;20744;-70
2022/08/09 14:26:59;;;;;;;2.05;0.88;;;;;;;39.68;15.56;98306.94;7614445;23;20669;-71
2022/08/09 14:30:02;;;;;;;4.38;1.30;;;;;;;40.10;14.87;98301.38;7588757;23;20200;-71
2022/08/09 14:33:24;;;;;;;1.95;1.20;;;;;;;40.48;15.19;98301.38;7615678;23;20216;-71
2022/08/09 14:36:27;;;;;;;1.92;0.95;;;;;;;40.22;14.93;98312.00;7615298;23;20213;-70
2022/08/09 14:39:41;;;;;;;2.08;1.20;;;;;;;38.84;15.24;98308.38;7614904;23;20765;-71
2022/08/09 14:42:49;;;;;;;3.80;1.25;;;;;;;39.83;14.42;98315.03;7613963;23;20571;-70
2022/08/09 14:45:51;;;;;;;2.35;1.10;;;;;;;40.50;14.60;98308.25;7613802;23;20216;-71
2022/08/09 14:49:13;;;;;;;2.72;1.13;;;;;;;38.40;15.41;98310.16;7614810;23;20208;-71
2022/08/09 14:52:16;;;;;;;2.65;1.10;;;;;;;38.99;15.32;98308.28;7615656;23;20548;-69
2022/08/09 14:55:19;;;;;;;4.32;1.48;;;;;;;39.24;15.05;98316.28;7590038;23;20669;-71
2022/08/09 14:58:21;;;;;;;3.15;1.20;;;;;;;39.00;14.92;98293.38;7614256;23;20749;-70
2022/08/09 15:01:24;;;;;;;1.80;1.02;;;;;;;39.96;14.61;98300.47;7614510;23;20676;-70